createdAt,value
2019-01-08T00:23:45.292Z,4.04
2019-01-08T00:52:22.485Z,4.18
2019-01-08T01:21:02.203Z,4.44
2019-01-08T01:49:44.376Z,4.73
2019-01-08T02:18:23.519Z,4.82
2019-01-08T02:47:05.218Z,4.85
2019-01-08T03:15:42.274Z,4.89
2019-01-08T03:44:19.824Z,5.02
2019-01-08T04:12:54.587Z,4.84
2019-01-08T04:41:29.830Z,4.36
2019-01-08T05:10:07.407Z,4.17
2019-01-08T05:38:43.126Z,3.53
2019-01-08T06:07:22.207Z,3.82
2019-01-08T06:36:03.163Z,3.99
2019-01-08T07:04:42.820Z,4.3
2019-01-08T07:33:26.607Z,5.01
2019-01-08T08:02:06.777Z,5.38
2019-01-08T08:30:36.835Z,5.02
2019-01-08T08:59:10.188Z,5.02
2019-01-08T09:27:50.771Z,5.14
2019-01-08T09:56:26.520Z,5.21
2019-01-08T10:25:08.636Z,5.71
2019-01-08T10:53:48.041Z,6.2
2019-01-08T11:22:27.395Z,6.67
2019-01-08T11:51:06.830Z,6.09
2019-01-08T12:19:41.193Z,5.74
2019-01-08T12:48:22.751Z,6.21
2019-01-08T13:17:11.308Z,6.36
2019-01-08T13:45:33.237Z,6.37
2019-01-08T14:14:09.083Z,6.17
2019-01-08T14:42:41.869Z,5.26
2019-01-08T15:11:16.443Z,5.31
2019-01-08T15:39:52.993Z,5.37
2019-01-08T16:08:27.051Z,5.06
2019-01-08T16:37:08.388Z,5.16
2019-01-08T17:05:53.763Z,5.34
2019-01-08T17:34:06.593Z,5.09
2019-01-08T18:02:45.156Z,4.83
2019-01-08T18:31:21.931Z,4.49
2019-01-08T18:59:58.569Z,4.46
2019-01-08T19:28:34.518Z,4.3
2019-01-08T19:57:10.229Z,3.96
2019-01-08T20:25:49.799Z,3.91
2019-01-08T20:54:27.258Z,3.79
2019-01-08T21:23:06.125Z,3.71
2019-01-08T21:51:43.589Z,3.58
2019-01-08T22:20:22.673Z,3.37
2019-01-08T22:48:54.783Z,3.06
2019-01-08T23:17:32.347Z,2.82
2019-01-08T23:46:08.650Z,2.44
